sim
Sign-in with your pilot id or email,
or register
Callsign
Passwort

Schedule Details

Flight Number: RYR1584 (1)
Departure: Leeds Bradford Airport (EGNM) at 12:45
Arrival: Fuerteventura Airport (GCFV) at 17:10
Route: Ryanair Passenger Schedule. Enter filed route here before submitting Pirep.

Weather Information
Getting current METAR information for EGNM 160350Z 24010KT 200V270 9999 BKN026 09/06 Q1016
Getting current METAR information for GCFV 160330Z AUTO 28005KT 9999 NCD 14/11 Q1017

Schedule Frequency

Route Map